createdAt,value
2018-03-29T00:00:57.721Z,100.00
2018-03-29T00:03:25.501Z,100.00
2018-03-29T00:05:53.243Z,100.00
2018-03-29T00:08:20.956Z,100.00
2018-03-29T00:10:48.735Z,100.00
2018-03-29T00:13:16.507Z,100.00
2018-03-29T00:15:44.284Z,100.00
2018-03-29T00:18:12.472Z,100.00
2018-03-29T00:20:40.138Z,100.00
2018-03-29T00:23:07.817Z,100.00
2018-03-29T00:25:35.544Z,100.00
2018-03-29T00:28:03.276Z,100.00
2018-03-29T00:30:31.010Z,100.00
2018-03-29T00:32:58.725Z,100.00
2018-03-29T00:35:26.401Z,100.00
2018-03-29T00:37:54.078Z,100.00
2018-03-29T00:40:21.861Z,100.00
2018-03-29T00:42:49.536Z,100.00
2018-03-29T00:45:17.427Z,100.00
2018-03-29T00:47:45.193Z,100.00
2018-03-29T00:50:12.873Z,100.00
2018-03-29T00:52:40.703Z,100.00
2018-03-29T00:55:08.608Z,100.00
2018-03-29T00:57:36.361Z,100.00
2018-03-29T01:00:04.286Z,100.00
2018-03-29T01:02:32.019Z,100.00
2018-03-29T01:04:59.643Z,100.00
2018-03-29T01:07:27.522Z,100.00
2018-03-29T01:09:55.298Z,100.00
2018-03-29T01:12:23.033Z,100.00
2018-03-29T01:14:50.855Z,100.00
2018-03-29T01:17:18.631Z,100.00
2018-03-29T01:19:46.408Z,100.00
2018-03-29T01:22:14.188Z,100.00
2018-03-29T01:24:42.073Z,100.00
2018-03-29T01:27:09.809Z,100.00
2018-03-29T01:29:37.625Z,100.00
2018-03-29T01:32:05.399Z,100.00
2018-03-29T01:34:33.283Z,100.00
2018-03-29T01:37:01.047Z,100.00
2018-03-29T01:39:28.787Z,100.00
2018-03-29T01:41:56.500Z,100.00
2018-03-29T01:44:24.181Z,100.00
2018-03-29T01:46:51.867Z,100.00
2018-03-29T01:49:19.743Z,100.00
2018-03-29T01:51:47.418Z,100.00
2018-03-29T01:54:15.098Z,100.00
2018-03-29T01:56:42.771Z,100.00
2018-03-29T01:59:10.540Z,100.00
2018-03-29T02:01:38.330Z,100.00
2018-03-29T02:04:06.048Z,100.00
2018-03-29T02:06:33.885Z,100.00
2018-03-29T02:09:01.554Z,100.00
2018-03-29T02:11:29.631Z,100.00
2018-03-29T02:13:57.315Z,100.00
2018-03-29T02:16:25.092Z,100.00
2018-03-29T02:18:52.767Z,100.00
2018-03-29T02:21:20.494Z,100.00
2018-03-29T02:23:48.331Z,100.00
2018-03-29T02:26:16.513Z,100.00
2018-03-29T02:28:44.267Z,100.00
2018-03-29T02:31:12.074Z,100.00
2018-03-29T02:33:39.951Z,100.00
2018-03-29T02:36:07.732Z,100.00
2018-03-29T02:38:35.506Z,100.00
2018-03-29T02:41:03.290Z,100.00
2018-03-29T02:43:31.163Z,100.00
2018-03-29T02:45:58.940Z,100.00
2018-03-29T02:48:26.680Z,100.00
2018-03-29T02:50:54.497Z,100.00
2018-03-29T02:53:22.278Z,100.00
2018-03-29T02:55:49.952Z,100.00
2018-03-29T02:58:17.620Z,100.00
2018-03-29T03:00:45.295Z,100.00
2018-03-29T03:03:12.997Z,100.00
2018-03-29T03:05:40.772Z,100.00
2018-03-29T03:08:08.843Z,100.00
2018-03-29T03:10:36.525Z,100.00
2018-03-29T03:13:04.191Z,100.00
2018-03-29T03:15:31.904Z,100.00
2018-03-29T03:17:59.745Z,100.00
2018-03-29T03:20:27.525Z,100.00
2018-03-29T03:22:55.299Z,100.00
2018-03-29T03:25:23.080Z,100.00
2018-03-29T03:27:50.923Z,100.00
2018-03-29T03:30:18.530Z,100.00
2018-03-29T03:32:46.310Z,100.00
2018-03-29T03:35:14.089Z,100.00
2018-03-29T03:37:41.862Z,100.00
2018-03-29T03:40:09.542Z,100.00
2018-03-29T03:42:37.321Z,100.00
2018-03-29T03:45:05.200Z,100.00
2018-03-29T03:47:32.943Z,100.00
2018-03-29T03:50:00.635Z,100.00
2018-03-29T03:52:28.399Z,100.00
2018-03-29T03:54:56.213Z,100.00
2018-03-29T03:57:23.985Z,100.00
2018-03-29T03:59:52.070Z,100.00
2018-03-29T04:02:19.877Z,100.00
2018-03-29T04:04:47.629Z,100.00
2018-03-29T04:07:15.306Z,100.00
2018-03-29T04:09:43.140Z,100.00
2018-03-29T04:12:10.855Z,100.00
2018-03-29T04:14:38.535Z,100.00
2018-03-29T04:17:06.315Z,100.00
2018-03-29T04:19:34.192Z,100.00
2018-03-29T04:22:01.976Z,100.00
2018-03-29T04:24:29.754Z,100.00
2018-03-29T04:26:57.936Z,100.00
2018-03-29T04:29:25.728Z,100.00
2018-03-29T04:31:53.538Z,100.00
2018-03-29T04:34:21.274Z,100.00
2018-03-29T04:36:48.936Z,100.00
2018-03-29T04:39:16.723Z,100.00
2018-03-29T04:41:44.502Z,100.00
2018-03-29T04:44:12.270Z,100.00
2018-03-29T04:46:40.364Z,100.00
2018-03-29T04:49:08.177Z,100.00
2018-03-29T04:51:35.917Z,100.00
2018-03-29T04:54:03.600Z,100.00
2018-03-29T04:56:31.372Z,100.00
2018-03-29T04:58:59.251Z,100.00
2018-03-29T05:01:26.988Z,100.00
2018-03-29T05:03:54.706Z,100.00
2018-03-29T05:06:22.483Z,100.00
2018-03-29T05:08:50.208Z,100.00
2018-03-29T05:11:18.127Z,100.00
2018-03-29T05:13:46.025Z,100.00
2018-03-29T05:16:13.802Z,100.00
2018-03-29T05:18:41.685Z,100.00
2018-03-29T05:21:09.460Z,100.00
2018-03-29T05:23:37.142Z,100.00
2018-03-29T05:26:07.884Z,100.00
2018-03-29T05:28:35.615Z,100.00
2018-03-29T05:31:03.439Z,100.00
2018-03-29T05:33:31.317Z,100.00
2018-03-29T05:35:59.041Z,100.00
2018-03-29T05:38:26.874Z,100.00
2018-03-29T05:40:55.217Z,100.00
2018-03-29T05:43:22.944Z,100.00
2018-03-29T05:45:50.723Z,100.00
2018-03-29T05:48:18.503Z,100.00
2018-03-29T05:50:46.396Z,100.00
2018-03-29T05:53:14.058Z,100.00
2018-03-29T05:55:41.823Z,100.00
2018-03-29T05:58:09.613Z,100.00
2018-03-29T06:00:37.286Z,100.00
2018-03-29T06:03:05.035Z,100.00
2018-03-29T06:05:32.844Z,100.00
2018-03-29T06:08:00.584Z,100.00
2018-03-29T06:10:28.403Z,100.00
2018-03-29T06:12:56.281Z,100.00
2018-03-29T06:15:24.054Z,100.00
2018-03-29T06:17:57.569Z,100.00
2018-03-29T06:20:25.312Z,100.00
2018-03-29T06:22:53.125Z,100.00
2018-03-29T06:25:20.901Z,100.00
2018-03-29T06:27:48.683Z,100.00
2018-03-29T06:30:16.564Z,100.00
2018-03-29T06:32:44.301Z,100.00
2018-03-29T06:35:12.116Z,100.00
2018-03-29T06:37:39.898Z,100.00
2018-03-29T06:40:07.564Z,100.00
2018-03-29T06:42:35.312Z,100.00
2018-03-29T06:45:03.080Z,100.00
2018-03-29T06:47:30.793Z,100.00
2018-03-29T06:49:58.583Z,100.00
2018-03-29T06:52:26.357Z,100.00
2018-03-29T06:54:54.136Z,100.00
2018-03-29T06:57:21.986Z,100.00
2018-03-29T06:59:49.754Z,100.00
2018-03-29T07:02:17.476Z,100.00
2018-03-29T07:04:45.350Z,100.00
2018-03-29T07:07:13.230Z,100.00
2018-03-29T07:09:40.900Z,100.00
2018-03-29T07:12:08.682Z,100.00
2018-03-29T07:14:36.424Z,100.00
2018-03-29T07:17:04.140Z,100.00
2018-03-29T07:19:32.221Z,100.00
2018-03-29T07:21:59.897Z,100.00
2018-03-29T07:24:27.571Z,100.00
2018-03-29T07:26:55.240Z,100.00
2018-03-29T07:29:22.923Z,100.00
2018-03-29T07:31:50.803Z,100.00
2018-03-29T07:34:18.583Z,100.00
2018-03-29T07:36:46.326Z,100.00
2018-03-29T07:39:14.092Z,100.00
2018-03-29T07:41:41.808Z,100.00
2018-03-29T07:44:09.695Z,100.00
2018-03-29T07:46:37.362Z,100.00
2018-03-29T07:49:05.111Z,100.00
2018-03-29T07:51:32.926Z,100.00
2018-03-29T07:54:00.592Z,100.00
2018-03-29T07:56:28.376Z,100.00
2018-03-29T07:58:56.568Z,100.00
2018-03-29T08:01:24.264Z,100.00
2018-03-29T08:03:51.984Z,100.00
2018-03-29T08:06:19.697Z,100.00
2018-03-29T08:08:47.473Z,100.00
2018-03-29T08:11:15.249Z,100.00
2018-03-29T08:13:43.032Z,100.00
2018-03-29T08:16:10.770Z,100.00
2018-03-29T08:18:38.783Z,100.00
2018-03-29T08:21:06.464Z,100.00
2018-03-29T08:23:34.133Z,100.00
2018-03-29T08:26:01.982Z,100.00
2018-03-29T08:28:29.797Z,100.00
2018-03-29T08:30:57.575Z,100.00
2018-03-29T08:33:25.456Z,100.00
2018-03-29T08:35:53.135Z,100.00
2018-03-29T08:38:20.863Z,100.00
2018-03-29T08:40:48.687Z,100.00
2018-03-29T08:43:16.420Z,100.00
2018-03-29T08:45:44.243Z,100.00
2018-03-29T08:48:12.124Z,100.00
2018-03-29T08:50:39.796Z,100.00
2018-03-29T08:53:07.468Z,100.00
2018-03-29T08:55:35.253Z,100.00
2018-03-29T08:58:03.034Z,100.00
2018-03-29T09:00:30.705Z,100.00
2018-03-29T09:02:58.570Z,100.00
2018-03-29T09:05:26.366Z,100.00
2018-03-29T09:07:54.111Z,100.00
2018-03-29T09:10:21.919Z,99.18
2018-03-29T09:12:49.697Z,100.00
2018-03-29T09:15:17.463Z,100.00
2018-03-29T09:17:45.204Z,97.39
2018-03-29T09:20:12.896Z,97.67
2018-03-29T09:22:40.707Z,98.46
2018-03-29T09:25:08.492Z,97.11
2018-03-29T09:27:36.261Z,95.41
2018-03-29T09:30:04.039Z,95.47
2018-03-29T09:32:31.822Z,92.49
2018-03-29T09:34:59.545Z,95.80
2018-03-29T09:37:27.375Z,96.83
2018-03-29T09:39:55.566Z,93.99
2018-03-29T09:42:23.343Z,94.54
2018-03-29T09:44:51.121Z,93.27
2018-03-29T09:47:18.896Z,93.75
2018-03-29T09:49:46.674Z,94.74
2018-03-29T09:52:14.760Z,92.14
2018-03-29T09:54:42.541Z,91.96
2018-03-29T09:57:10.269Z,92.77
2018-03-29T09:59:38.093Z,92.25
2018-03-29T10:02:11.499Z,92.74
2018-03-29T10:04:39.386Z,90.45
2018-03-29T10:10:06.282Z,94.17
2018-03-29T10:12:34.054Z,94.54
2018-03-29T10:15:01.796Z,93.17
2018-03-29T10:17:29.422Z,91.81
2018-03-29T10:19:57.595Z,91.46
2018-03-29T10:22:25.266Z,92.84
2018-03-29T10:24:53.560Z,93.07
2018-03-29T10:27:21.301Z,92.39
2018-03-29T10:29:49.114Z,93.58
2018-03-29T10:32:16.937Z,93.86
2018-03-29T10:34:44.660Z,94.18
2018-03-29T10:37:12.337Z,93.47
2018-03-29T10:39:40.139Z,91.67
2018-03-29T10:42:07.854Z,95.88
2018-03-29T10:44:35.567Z,90.53
2018-03-29T10:47:03.654Z,93.29
2018-03-29T10:49:31.334Z,98.42
2018-03-29T10:51:59.118Z,96.07
2018-03-29T10:54:26.792Z,94.32
2018-03-29T10:56:54.571Z,94.34
2018-03-29T10:59:22.293Z,91.27
2018-03-29T11:01:50.021Z,93.08
2018-03-29T11:04:17.764Z,97.08
2018-03-29T11:06:45.583Z,98.45
2018-03-29T11:09:13.348Z,96.88
2018-03-29T11:11:41.132Z,97.74
2018-03-29T11:14:08.804Z,96.58
2018-03-29T11:16:36.881Z,98.14
2018-03-29T11:19:04.567Z,99.03
2018-03-29T11:21:32.236Z,99.04
2018-03-29T11:23:59.868Z,100.00
2018-03-29T11:26:27.697Z,98.32
2018-03-29T11:28:56.499Z,97.95
2018-03-29T11:31:24.384Z,98.08
2018-03-29T11:33:52.058Z,97.25
2018-03-29T11:36:19.734Z,94.08
2018-03-29T11:38:47.460Z,99.28
2018-03-29T11:41:15.080Z,97.20
2018-03-29T11:43:42.964Z,99.25
2018-03-29T11:46:10.591Z,99.66
2018-03-29T11:48:38.192Z,96.64
2018-03-29T11:51:05.863Z,96.56
2018-03-29T11:53:33.539Z,97.14
2018-03-29T11:56:01.653Z,94.16
2018-03-29T11:58:29.304Z,93.28
2018-03-29T12:00:56.996Z,92.47
2018-03-29T12:03:24.726Z,92.83
2018-03-29T12:05:52.436Z,91.29
2018-03-29T12:08:20.141Z,93.29
2018-03-29T12:10:48.010Z,91.74
2018-03-29T12:13:15.784Z,92.63
2018-03-29T12:15:43.665Z,87.51
2018-03-29T12:18:11.852Z,86.56
2018-03-29T12:20:39.733Z,86.80
2018-03-29T12:23:07.512Z,90.22
2018-03-29T12:25:35.288Z,85.93
2018-03-29T12:28:03.066Z,82.66
2018-03-29T12:30:30.702Z,77.99
2018-03-29T12:32:58.522Z,71.74
2018-03-29T12:35:26.298Z,72.29
2018-03-29T12:37:54.077Z,74.91
2018-03-29T12:40:22.164Z,77.22
2018-03-29T12:42:49.886Z,74.21
2018-03-29T12:45:17.519Z,75.35
2018-03-29T12:47:45.397Z,75.65
2018-03-29T12:50:13.111Z,75.55
2018-03-29T12:52:40.946Z,77.18
2018-03-29T12:55:20.502Z,76.22
2018-03-29T12:58:00.043Z,78.36
2018-03-29T13:00:27.680Z,75.67
2018-03-29T13:02:55.445Z,77.54
2018-03-29T13:05:23.132Z,76.35
2018-03-29T13:07:50.747Z,77.51
2018-03-29T13:10:18.436Z,79.08
2018-03-29T13:12:46.109Z,76.70
2018-03-29T13:15:13.783Z,75.40
2018-03-29T13:17:41.462Z,78.38
2018-03-29T13:20:09.166Z,76.36
2018-03-29T13:22:36.872Z,76.85
2018-03-29T13:25:04.703Z,76.94
2018-03-29T13:27:32.471Z,73.02
2018-03-29T13:30:00.353Z,76.15
2018-03-29T13:32:28.016Z,76.89
2018-03-29T13:34:55.703Z,75.95
2018-03-29T13:37:23.786Z,75.18
2018-03-29T13:39:51.467Z,73.51
2018-03-29T13:42:19.141Z,72.35
2018-03-29T13:44:46.928Z,70.50
2018-03-29T13:47:14.793Z,67.26
2018-03-29T13:49:42.576Z,71.04
2018-03-29T13:52:10.174Z,73.47
2018-03-29T13:54:37.836Z,71.15
2018-03-29T13:57:05.513Z,68.35
2018-03-29T13:59:33.249Z,68.66
2018-03-29T14:02:01.068Z,70.94
2018-03-29T14:04:28.730Z,64.86
2018-03-29T14:06:56.503Z,63.92
2018-03-29T14:09:24.288Z,66.02
2018-03-29T14:11:52.066Z,65.21
2018-03-29T14:14:19.798Z,69.88
2018-03-29T14:16:47.625Z,65.96
2018-03-29T14:19:15.485Z,69.51
2018-03-29T14:21:43.279Z,71.02
2018-03-29T14:24:11.466Z,69.79
2018-03-29T14:26:39.243Z,70.29
2018-03-29T14:29:06.854Z,72.15
2018-03-29T14:31:34.527Z,73.07
2018-03-29T14:34:02.124Z,72.20
2018-03-29T14:36:29.760Z,78.92
2018-03-29T14:38:57.438Z,80.64
2018-03-29T14:41:25.064Z,82.48
2018-03-29T14:43:52.771Z,82.52
2018-03-29T14:46:20.435Z,79.01
2018-03-29T14:48:48.027Z,80.86
2018-03-29T14:51:16.396Z,80.76
2018-03-29T14:53:44.001Z,81.59
2018-03-29T14:56:11.604Z,82.09
2018-03-29T14:58:39.245Z,84.22
2018-03-29T15:01:06.911Z,82.97
2018-03-29T15:03:34.564Z,83.98
2018-03-29T15:06:02.326Z,86.08
2018-03-29T15:08:30.022Z,88.17
2018-03-29T15:13:24.771Z,89.52
2018-03-29T15:15:52.434Z,91.82
2018-03-29T15:18:20.077Z,90.87
2018-03-29T15:20:47.690Z,89.92
2018-03-29T15:23:15.369Z,84.84
2018-03-29T15:25:43.150Z,88.94
2018-03-29T15:28:10.750Z,88.76
2018-03-29T15:30:38.797Z,88.62
2018-03-29T15:33:06.483Z,87.50
2018-03-29T15:35:34.155Z,83.50
2018-03-29T15:38:02.014Z,84.05
2018-03-29T15:40:29.606Z,87.08
2018-03-29T15:42:57.198Z,87.06
2018-03-29T15:45:24.845Z,82.45
2018-03-29T15:47:52.448Z,81.38
2018-03-29T15:50:20.214Z,80.55
2018-03-29T15:52:47.877Z,79.74
2018-03-29T15:55:15.946Z,80.28
2018-03-29T15:57:43.530Z,81.63
2018-03-29T16:00:11.215Z,77.09
2018-03-29T16:02:38.848Z,75.97
2018-03-29T16:05:06.453Z,75.87
2018-03-29T16:07:34.148Z,78.11
2018-03-29T16:10:01.737Z,79.00
2018-03-29T16:12:29.391Z,79.01
2018-03-29T16:14:56.996Z,79.66
2018-03-29T16:17:24.600Z,78.10
2018-03-29T16:19:52.257Z,78.45
2018-03-29T16:22:19.852Z,79.01
2018-03-29T16:24:47.468Z,79.88
2018-03-29T16:27:15.152Z,79.22
2018-03-29T16:29:42.807Z,79.68
2018-03-29T16:32:10.488Z,80.91
2018-03-29T16:34:38.273Z,79.39
2018-03-29T16:37:05.944Z,80.61
2018-03-29T16:39:33.828Z,80.53
2018-03-29T16:42:01.517Z,81.47
2018-03-29T16:44:29.176Z,82.04
2018-03-29T16:46:57.470Z,81.65
2018-03-29T16:49:25.348Z,81.76
2018-03-29T16:51:53.225Z,82.38
2018-03-29T16:54:21.302Z,82.92
2018-03-29T16:56:48.989Z,84.31
2018-03-29T16:59:16.640Z,83.76
2018-03-29T17:01:44.442Z,83.70
2018-03-29T17:04:12.327Z,83.29
2018-03-29T17:06:40.203Z,83.00
2018-03-29T17:09:08.081Z,83.90
2018-03-29T17:11:35.743Z,84.94
2018-03-29T17:14:03.535Z,85.50
2018-03-29T17:16:31.278Z,85.76
2018-03-29T17:18:59.099Z,85.38
2018-03-29T17:21:26.867Z,85.64
2018-03-29T17:23:54.603Z,85.53
2018-03-29T17:26:22.427Z,86.21
2018-03-29T17:28:50.097Z,87.24
2018-03-29T17:31:17.988Z,87.22
2018-03-29T17:33:45.643Z,87.21
2018-03-29T17:36:13.338Z,87.69
2018-03-29T17:38:41.112Z,88.92
2018-03-29T17:41:08.884Z,90.11
2018-03-29T17:43:36.667Z,91.18
2018-03-29T17:46:04.443Z,91.68
2018-03-29T17:48:32.118Z,94.04
2018-03-29T17:50:59.794Z,94.96
2018-03-29T17:53:27.574Z,95.61
2018-03-29T17:55:55.346Z,96.01
2018-03-29T17:58:23.538Z,96.70
2018-03-29T18:00:51.334Z,97.63
2018-03-29T18:03:19.093Z,98.38
2018-03-29T18:05:46.936Z,99.07
2018-03-29T18:08:14.642Z,99.87
2018-03-29T18:10:42.427Z,100.00
2018-03-29T18:13:10.098Z,100.00
2018-03-29T18:15:38.087Z,100.00
2018-03-29T18:18:05.759Z,100.00
2018-03-29T18:20:33.557Z,100.00
2018-03-29T18:23:01.617Z,100.00
2018-03-29T18:25:29.286Z,100.00
2018-03-29T18:27:57.035Z,100.00
2018-03-29T18:30:24.851Z,100.00
2018-03-29T18:32:52.734Z,100.00
2018-03-29T18:35:20.341Z,100.00
2018-03-29T18:37:47.947Z,100.00
2018-03-29T18:40:15.865Z,100.00
2018-03-29T18:42:43.494Z,100.00
2018-03-29T18:45:11.134Z,100.00
2018-03-29T18:47:38.835Z,100.00
2018-03-29T18:50:06.456Z,100.00
2018-03-29T18:52:34.068Z,100.00
2018-03-29T18:55:01.709Z,100.00
2018-03-29T18:57:29.425Z,100.00
2018-03-29T18:59:57.050Z,100.00
2018-03-29T19:02:24.655Z,100.00
2018-03-29T19:04:52.359Z,100.00
2018-03-29T19:07:20.085Z,100.00
2018-03-29T19:09:47.871Z,100.00
2018-03-29T19:12:15.951Z,100.00
2018-03-29T19:14:43.629Z,100.00
2018-03-29T19:17:11.301Z,100.00
2018-03-29T19:19:39.084Z,100.00
2018-03-29T19:22:06.833Z,100.00
2018-03-29T19:24:34.591Z,100.00
2018-03-29T19:27:02.414Z,100.00
2018-03-29T19:29:30.149Z,100.00
2018-03-29T19:31:57.868Z,100.00
2018-03-29T19:34:25.647Z,100.00
2018-03-29T19:36:53.529Z,100.00
2018-03-29T19:39:21.305Z,100.00
2018-03-29T19:41:49.208Z,100.00
2018-03-29T19:44:16.838Z,100.00
2018-03-29T19:46:44.740Z,100.00
2018-03-29T19:49:12.523Z,100.00
2018-03-29T19:51:40.197Z,100.00
2018-03-29T19:54:08.076Z,100.00
2018-03-29T19:56:35.764Z,100.00
2018-03-29T19:59:03.390Z,100.00
2018-03-29T20:01:31.204Z,100.00
2018-03-29T20:03:58.881Z,100.00
2018-03-29T20:06:26.657Z,100.00
2018-03-29T20:08:54.435Z,100.00
2018-03-29T20:11:22.203Z,100.00
2018-03-29T20:13:49.987Z,100.00
2018-03-29T20:16:17.654Z,100.00
2018-03-29T20:18:45.403Z,100.00
2018-03-29T20:21:13.273Z,100.00
2018-03-29T20:23:41.304Z,100.00
2018-03-29T20:26:09.029Z,100.00
2018-03-29T20:28:36.665Z,100.00
2018-03-29T20:31:04.435Z,100.00
2018-03-29T20:33:32.081Z,100.00
2018-03-29T20:35:59.888Z,100.00
2018-03-29T20:38:27.703Z,100.00
2018-03-29T20:40:55.332Z,100.00
2018-03-29T20:43:23.026Z,100.00
2018-03-29T20:45:50.674Z,100.00
2018-03-29T20:48:18.367Z,100.00
2018-03-29T20:50:46.008Z,100.00
2018-03-29T20:53:13.640Z,100.00
2018-03-29T20:55:41.321Z,100.00
2018-03-29T20:58:08.960Z,100.00
2018-03-29T21:00:36.560Z,100.00
2018-03-29T21:03:04.242Z,100.00
2018-03-29T21:05:31.921Z,100.00
2018-03-29T21:07:59.528Z,100.00
2018-03-29T21:10:27.151Z,100.00
2018-03-29T21:12:54.809Z,100.00
2018-03-29T21:15:22.426Z,100.00
2018-03-29T21:17:50.061Z,100.00
2018-03-29T21:20:17.742Z,100.00
2018-03-29T21:22:45.360Z,100.00
2018-03-29T21:25:13.070Z,100.00
2018-03-29T21:27:40.686Z,100.00
2018-03-29T21:30:08.278Z,100.00
2018-03-29T21:32:35.940Z,100.00
2018-03-29T21:35:03.548Z,100.00
2018-03-29T21:37:31.161Z,100.00
2018-03-29T21:39:58.788Z,100.00
2018-03-29T21:42:26.455Z,100.00
2018-03-29T21:44:54.189Z,100.00
2018-03-29T21:47:21.965Z,100.00
2018-03-29T21:49:49.627Z,100.00
2018-03-29T21:52:17.251Z,100.00
2018-03-29T21:54:44.916Z,100.00
2018-03-29T21:57:12.535Z,100.00
2018-03-29T21:59:40.148Z,100.00
2018-03-29T22:02:07.796Z,100.00
2018-03-29T22:04:35.438Z,100.00
2018-03-29T22:07:03.135Z,100.00
2018-03-29T22:09:30.767Z,100.00
2018-03-29T22:11:58.384Z,100.00
2018-03-29T22:14:26.368Z,100.00
2018-03-29T22:16:53.985Z,100.00
2018-03-29T22:19:21.598Z,100.00
2018-03-29T22:21:49.227Z,100.00
2018-03-29T22:24:16.870Z,100.00
2018-03-29T22:26:44.671Z,100.00
2018-03-29T22:29:12.550Z,100.00
2018-03-29T22:31:40.166Z,100.00
2018-03-29T22:34:07.845Z,100.00
2018-03-29T22:36:35.679Z,100.00
2018-03-29T22:39:03.542Z,100.00
2018-03-29T22:41:31.335Z,100.00
2018-03-29T22:43:58.956Z,100.00
2018-03-29T22:46:26.600Z,100.00
2018-03-29T22:48:54.269Z,100.00
2018-03-29T22:51:21.866Z,100.00
2018-03-29T22:53:49.516Z,100.00
2018-03-29T22:56:17.181Z,100.00
2018-03-29T22:58:44.792Z,100.00
2018-03-29T23:01:12.447Z,100.00
2018-03-29T23:03:40.116Z,100.00
2018-03-29T23:06:07.769Z,100.00
2018-03-29T23:08:35.376Z,100.00
2018-03-29T23:11:03.010Z,100.00
2018-03-29T23:13:30.660Z,100.00
2018-03-29T23:15:58.302Z,100.00
2018-03-29T23:18:25.978Z,100.00
2018-03-29T23:20:53.583Z,100.00
2018-03-29T23:23:21.193Z,100.00
2018-03-29T23:25:48.827Z,100.00
2018-03-29T23:28:16.440Z,100.00
2018-03-29T23:30:44.084Z,100.00
2018-03-29T23:33:11.705Z,100.00
2018-03-29T23:35:39.376Z,100.00
2018-03-29T23:38:06.992Z,100.00
2018-03-29T23:40:34.632Z,100.00
2018-03-29T23:43:02.401Z,100.00
2018-03-29T23:45:30.138Z,100.00
2018-03-29T23:47:57.961Z,100.00
2018-03-29T23:50:25.596Z,100.00
2018-03-29T23:52:53.211Z,100.00
2018-03-29T23:55:21.255Z,100.00
2018-03-29T23:57:48.929Z,100.00
